Flight Track Log - Related Links

Times and Time Zones

All times are in EDT time to prevent confusion due to time zone crossing. See the TAM3049 flight status page for this flight to view local times or setup timezone preferences in your user account.

Time Position Orientation Groundspeed Altitude Reporting Facility
EDT Latitude Longitude Course Direction KTS MPH feet Rate Location/Type
Fri 09:53:00 PM -26.1417 -48.3673 211° Southwest  Level Estimated
Fri 09:54:00 PM -26.2225 -48.4238 212° Southwest  Level Estimated
Fri 09:55:00 PM -26.3033 -48.4803 212° Southwest  Level Estimated
Fri 09:56:00 PM -26.3840 -48.5368 212° Southwest  Level Estimated
Fri 09:57:00 PM -26.4648 -48.5935 212° Southwest  Level Estimated
Fri 09:58:00 PM -26.5455 -48.6502 212° Southwest  Level Estimated
Fri 09:59:00 PM -26.6262 -48.7070 212° Southwest  Level Estimated
Fri 10:00:00 PM -26.7068 -48.7639 212° Southwest  Level Estimated
Fri 10:01:00 PM -26.7875 -48.8209 212° Southwest  Level Estimated
Fri 10:02:00 PM -26.8681 -48.8779 212° Southwest  Level Estimated
Fri 10:03:00 PM -26.9487 -48.9351 212° Southwest  Level Estimated
Fri 10:04:00 PM -27.0292 -48.9923 212° Southwest  Level Estimated
Fri 10:05:00 PM -27.1098 -49.0496 212° Southwest  Level Estimated
Fri 10:06:00 PM -27.1903 -49.1070 212° Southwest  Level Estimated
Fri 10:07:00 PM -27.2708 -49.1644 212° Southwest  Level Estimated
Fri 10:08:00 PM -27.3513 -49.2220 212° Southwest  Level Estimated
Fri 10:09:00 PM -27.4317 -49.2796 212° Southwest  Level Estimated
Fri 10:10:00 PM -27.5122 -49.3373 212° Southwest  Level Estimated
Fri 10:11:00 PM -27.5926 -49.3951 212° Southwest  Level Estimated
Fri 10:12:00 PM -27.6730 -49.4530 213° Southwest  Level Estimated
Fri 10:13:00 PM -27.7533 -49.5110 213° Southwest  Level Estimated
Fri 10:14:00 PM -27.8337 -49.5690 213° Southwest  Level Estimated
Fri 10:15:00 PM -27.9140 -49.6272 213° Southwest  Level Estimated
Fri 10:16:00 PM -27.9942 -49.6854 213° Southwest  Level Estimated
Fri 10:17:00 PM -28.0745 -49.7437 213° Southwest  Level Estimated
Fri 10:18:00 PM -28.1547 -49.8021 213° Southwest  Level Estimated
Fri 10:19:00 PM -28.2349 -49.8606 213° Southwest  Level Estimated
Fri 10:20:00 PM -28.3151 -49.9192 213° Southwest  Level Estimated
Fri 10:21:00 PM -28.3953 -49.9779 213° Southwest  Level Estimated
Fri 10:22:00 PM -28.4754 -50.0366 213° Southwest  Level Estimated
Fri 10:23:00 PM -28.5555 -50.0955 213° Southwest  Level Estimated
Fri 10:24:00 PM -28.6356 -50.1544 213° Southwest  Level Estimated
Fri 10:25:00 PM -28.7157 -50.2134 213° Southwest  Level Estimated
Fri 10:26:00 PM -28.7957 -50.2725 213° Southwest  Level Estimated
Fri 10:27:00 PM -28.8757 -50.3317 213° Southwest  Level Estimated
Fri 10:28:00 PM -28.9557 -50.3910 213° Southwest  Level Estimated
Fri 10:29:00 PM -29.0357 -50.4504 213° Southwest  Level Estimated
Fri 10:30:00 PM -29.1156 -50.5099 213° Southwest  Level Estimated
Fri 10:31:00 PM -29.1955 -50.5695 213° Southwest  Level Estimated
Fri 10:32:00 PM -29.2754 -50.6292 213° Southwest  Level Estimated
Fri 10:33:00 PM -29.3552 -50.6889 213° Southwest  Level Estimated
Fri 10:34:00 PM -29.4350 -50.7488 213° Southwest  Level Estimated
Fri 10:35:00 PM -29.5149 -50.8087 213° Southwest  Level Estimated
Fri 10:36:00 PM -29.5946 -50.8688 213° Southwest  Level Estimated
Fri 10:37:00 PM -29.6744 -50.9289 213° Southwest  Level Estimated
Fri 10:38:00 PM -29.7541 -50.9891 213° Southwest  Level Estimated
Fri 10:39:00 PM -29.8338 -51.0494 213° Southwest  Level Estimated
Fri 10:40:00 PM -29.9134 -51.1099 213° Southwest  Level Estimated
Fri 10:41:00 PM -29.9931 -51.1704 213° Southwest  Level Estimated
Fri 10:42:00 PM -29.9944 -51.1714 213° Southwest  Level Estimated
Fri 10:43:00 PM -29.9944 -51.1714 41° Northeast  Level Estimated
Fri 10:44:00 PM -29.9944 -51.1714 41° Northeast  Level Estimated
Fri 10:45:00 PM -29.9944 -51.1714 41° Northeast  Level Estimated
Fri 10:46:00 PM -29.9944 -51.1714 41° Northeast  Level Estimated
Fri 10:47:00 PM -29.9944 -51.1714 41° Northeast  Level Estimated
Fri 10:48:00 PM -29.9944 -51.1714 41° Northeast  Level Estimated
Fri 10:49:00 PM -29.9944 -51.1714 41° Northeast  Level Estimated
Fri 10:50:00 PM -29.9944 -51.1714 41° Northeast  Level Estimated
Fri 10:51:00 PM -29.9944 -51.1714 41° Northeast  Level Estimated
Fri 10:52:00 PM -29.9944 -51.1714 41° Northeast  Level Estimated
Fri 10:53:00 PM -29.9944 -51.1714 41° Northeast  Level Estimated
Fri 10:54:00 PM -29.9944 -51.1714 41° Northeast  Level Estimated
Fri 10:55:00 PM -29.9944 -51.1714 41° Northeast  Level Estimated
Fri 10:56:00 PM -29.9944 -51.1714 41° Northeast  Level Estimated
Fri 10:57:00 PM -29.9944 -51.1714 41° Northeast  Level Estimated

Login

Don't have an account? Register now (free) for customized features, flight alerts, and more!